Time,TemperatureF,DewpointF,PressureIn,WindDirection,WindDirectionDegrees,WindSpeedMPH,WindSpeedGustMPH,Humidity,HourlyPrecipIn,Conditions,Clouds,dailyrainin,SoftwareType,DateUTC
2013-08-17 00:13:00,64.0,54.0,29.92,East,81,0.0,-999.0,69,-99.99,,,0.00,weatherlink.com 1.10,2013-08-17 07:13:00,
2013-08-17 00:28:00,63.5,53.0,29.92,East,81,0.0,-999.0,69,-99.99,,,0.00,weatherlink.com 1.10,2013-08-17 07:28:00,
2013-08-17 00:43:00,63.1,53.0,29.92,East,81,0.0,-999.0,69,-99.99,,,0.00,weatherlink.com 1.10,2013-08-17 07:43:00,
2013-08-17 00:58:00,62.3,52.0,29.92,East,81,0.0,-999.0,70,-99.99,,,0.00,weatherlink.com 1.10,2013-08-17 07:58:00,
2013-08-17 01:13:00,61.5,52.0,29.92,East,81,0.0,-999.0,72,-99.99,,,0.00,weatherlink.com 1.10,2013-08-17 08:13:00,
2013-08-17 01:28:00,60.7,52.0,29.92,East,81,0.0,-999.0,74,-99.99,,,0.00,weatherlink.com 1.10,2013-08-17 08:28:00,
2013-08-17 01:43:00,59.9,52.0,29.92,East,81,0.0,-999.0,75,-99.99,,,0.00,weatherlink.com 1.10,2013-08-17 08:43:00,
2013-08-17 01:58:00,59.2,52.0,29.92,East,81,0.0,-999.0,77,-99.99,,,0.00,weatherlink.com 1.10,2013-08-17 08:58:00,
2013-08-17 02:13:00,58.7,52.0,29.92,East,81,0.0,-999.0,78,-99.99,,,0.00,weatherlink.com 1.10,2013-08-17 09:13:00,
2013-08-17 02:28:00,58.4,52.0,29.92,East,81,0.0,-999.0,79,-99.99,,,0.00,weatherlink.com 1.10,2013-08-17 09:28:00,
2013-08-17 02:43:00,58.0,52.0,29.92,East,81,0.0,-999.0,79,-99.99,,,0.00,weatherlink.com 1.10,2013-08-17 09:43:00,
2013-08-17 02:58:00,57.5,51.0,29.92,East,81,0.0,-999.0,80,-99.99,,,0.00,weatherlink.com 1.10,2013-08-17 09:58:00,
2013-08-17 03:13:00,57.0,51.0,29.92,East,81,0.0,-999.0,80,-99.99,,,0.00,weatherlink.com 1.10,2013-08-17 10:13:00,
2013-08-17 03:28:00,56.7,51.0,29.92,East,81,0.0,-999.0,82,-99.99,,,0.00,weatherlink.com 1.10,2013-08-17 10:28:00,
2013-08-17 03:43:00,56.5,51.0,29.91,East,81,0.0,-999.0,82,-99.99,,,0.00,weatherlink.com 1.10,2013-08-17 10:43:00,
2013-08-17 03:59:00,56.3,51.0,29.91,East,81,0.0,-999.0,83,-99.99,,,0.00,weatherlink.com 1.10,2013-08-17 10:59:00,
2013-08-17 04:13:00,56.2,51.0,29.91,East,81,0.0,-999.0,83,-99.99,,,0.00,weatherlink.com 1.10,2013-08-17 11:13:00,
2013-08-17 04:28:00,55.9,51.0,29.91,East,81,0.0,-999.0,84,-99.99,,,0.00,weatherlink.com 1.10,2013-08-17 11:28:00,
2013-08-17 04:43:00,55.7,51.0,29.91,East,81,0.0,-999.0,84,-99.99,,,0.00,weatherlink.com 1.10,2013-08-17 11:43:00,
2013-08-17 04:59:00,55.6,51.0,29.91,East,81,0.0,-999.0,85,-99.99,,,0.00,weatherlink.com 1.10,2013-08-17 11:59:00,
2013-08-17 05:14:00,55.4,51.0,29.91,East,81,0.0,-999.0,85,-99.99,,,0.00,weatherlink.com 1.10,2013-08-17 12:14:00,
2013-08-17 05:29:00,55.4,51.0,29.92,East,81,0.0,-999.0,86,-99.99,,,0.00,weatherlink.com 1.10,2013-08-17 12:29:00,
2013-08-17 05:44:00,55.4,51.0,29.92,East,81,0.0,-999.0,86,-99.99,,,0.00,weatherlink.com 1.10,2013-08-17 12:44:00,
2013-08-17 05:59:00,55.1,51.0,29.92,East,81,0.0,-999.0,86,-99.99,,,0.00,weatherlink.com 1.10,2013-08-17 12:59:00,
2013-08-17 06:14:00,54.7,51.0,29.92,East,81,0.0,-999.0,86,-99.99,,,0.00,weatherlink.com 1.10,2013-08-17 13:14:00,
2013-08-17 06:29:00,54.4,50.0,29.92,East,81,0.0,-999.0,86,-99.99,,,0.00,weatherlink.com 1.10,2013-08-17 13:29:00,
2013-08-17 06:44:00,54.2,50.0,29.93,East,81,0.0,-999.0,86,-99.99,,,0.00,weatherlink.com 1.10,2013-08-17 13:44:00,
2013-08-17 06:59:00,54.1,50.0,29.93,East,81,0.0,-999.0,87,-99.99,,,0.00,weatherlink.com 1.10,2013-08-17 13:59:00,
2013-08-17 07:14:00,54.1,50.0,29.93,East,81,0.0,-999.0,87,-99.99,,,0.00,weatherlink.com 1.10,2013-08-17 14:14:00,
2013-08-17 07:29:00,54.5,51.0,29.93,East,81,0.0,-999.0,89,-99.99,,,0.00,weatherlink.com 1.10,2013-08-17 14:29:00,
2013-08-17 07:44:00,55.4,53.0,29.94,East,81,0.0,-999.0,90,-99.99,,,0.00,weatherlink.com 1.10,2013-08-17 14:44:00,
2013-08-17 07:59:00,57.0,55.0,29.94,East,81,0.0,-999.0,91,-99.99,,,0.00,weatherlink.com 1.10,2013-08-17 14:59:00,
2013-08-17 08:14:00,59.8,56.0,29.94,East,81,0.0,-999.0,88,-99.99,,,0.00,weatherlink.com 1.10,2013-08-17 15:14:00,
2013-08-17 08:29:00,62.6,57.0,29.94,East,81,0.0,-999.0,81,-99.99,,,0.00,weatherlink.com 1.10,2013-08-17 15:29:00,
2013-08-17 08:44:00,64.3,57.0,29.94,East,81,0.0,-999.0,76,-99.99,,,0.00,weatherlink.com 1.10,2013-08-17 15:44:00,
2013-08-17 08:59:00,66.1,57.0,29.94,SSE,159,3.0,-999.0,72,-99.99,,,0.00,weatherlink.com 1.10,2013-08-17 15:59:00,
2013-08-17 09:14:00,67.3,57.0,29.94,SSE,167,0.0,-999.0,70,-99.99,,,0.00,weatherlink.com 1.10,2013-08-17 16:14:00,
2013-08-17 09:29:00,68.3,57.0,29.95,SE,130,3.0,-999.0,68,-99.99,,,0.00,weatherlink.com 1.10,2013-08-17 16:29:00,
2013-08-17 09:44:00,69.3,57.0,29.95,South,188,0.0,-999.0,66,-99.99,,,0.00,weatherlink.com 1.10,2013-08-17 16:44:00,
2013-08-17 10:00:00,71.1,57.0,29.94,South,186,1.0,-999.0,62,-99.99,,,0.00,weatherlink.com 1.10,2013-08-17 17:00:00,
2013-08-17 10:15:00,72.3,58.0,29.93,ESE,107,0.0,-999.0,60,-99.99,,,0.00,weatherlink.com 1.10,2013-08-17 17:15:00,
2013-08-17 10:30:00,73.3,57.0,29.92,SE,127,0.0,-999.0,58,-99.99,,,0.00,weatherlink.com 1.10,2013-08-17 17:30:00,
2013-08-17 10:45:00,73.5,58.0,29.92,SSE,162,0.0,-999.0,58,-99.99,,,0.00,weatherlink.com 1.10,2013-08-17 17:45:00,
2013-08-17 11:00:00,74.0,59.0,29.92,SE,136,0.0,-999.0,59,-99.99,,,0.00,weatherlink.com 1.10,2013-08-17 18:00:00,
2013-08-17 11:15:00,75.4,58.0,29.93,ESE,117,0.0,-999.0,55,-99.99,,,0.00,weatherlink.com 1.10,2013-08-17 18:15:00,
2013-08-17 11:30:00,76.1,58.0,29.92,South,187,0.0,-999.0,54,-99.99,,,0.00,weatherlink.com 1.10,2013-08-17 18:30:00,
2013-08-17 11:45:00,78.3,59.0,29.92,ESE,113,0.0,-999.0,51,-99.99,,,0.00,weatherlink.com 1.10,2013-08-17 18:45:00,
2013-08-17 12:00:00,79.8,58.0,29.91,SE,144,0.0,-999.0,48,-99.99,,,0.00,weatherlink.com 1.10,2013-08-17 19:00:00,
2013-08-17 12:15:00,81.2,59.0,29.91,South,172,2.0,-999.0,47,-99.99,,,0.00,weatherlink.com 1.10,2013-08-17 19:15:00,
2013-08-17 12:30:00,82.2,59.0,29.91,SSE,153,3.0,-999.0,45,-99.99,,,0.00,weatherlink.com 1.10,2013-08-17 19:30:00,
2013-08-17 12:45:00,82.6,59.0,29.90,South,173,4.0,-999.0,44,-99.99,,,0.00,weatherlink.com 1.10,2013-08-17 19:45:00,
2013-08-17 13:00:00,82.0,59.0,29.89,East,100,3.0,-999.0,46,-99.99,,,0.00,weatherlink.com 1.10,2013-08-17 20:00:00,
2013-08-17 13:15:00,81.8,59.0,29.89,SSE,167,1.0,-999.0,46,-99.99,,,0.00,weatherlink.com 1.10,2013-08-17 20:15:00,
2013-08-17 13:30:00,81.2,60.0,29.89,South,170,0.0,-999.0,48,-99.99,,,0.00,weatherlink.com 1.10,2013-08-17 20:30:00,
2013-08-17 13:45:00,80.7,60.0,29.89,SSE,156,4.0,-999.0,49,-99.99,,,0.00,weatherlink.com 1.10,2013-08-17 20:45:00,
2013-08-17 14:00:00,80.3,59.0,29.88,SE,138,0.0,-999.0,49,-99.99,,,0.00,weatherlink.com 1.10,2013-08-17 21:00:00,
2013-08-17 14:15:00,81.4,59.0,29.88,SE,136,2.0,-999.0,47,-99.99,,,0.00,weatherlink.com 1.10,2013-08-17 21:15:00,
2013-08-17 14:30:00,81.8,60.0,29.87,South,169,2.0,-999.0,47,-99.99,,,0.00,weatherlink.com 1.10,2013-08-17 21:30:00,
2013-08-17 14:45:00,82.0,60.0,29.87,ESE,119,5.0,-999.0,48,-99.99,,,0.00,weatherlink.com 1.10,2013-08-17 21:45:00,
2013-08-17 15:00:00,82.2,60.0,29.86,East,83,0.0,-999.0,47,-99.99,,,0.00,weatherlink.com 1.10,2013-08-17 22:00:00,
2013-08-17 15:15:00,82.4,60.0,29.86,SSE,163,4.0,-999.0,47,-99.99,,,0.00,weatherlink.com 1.10,2013-08-17 22:15:00,
2013-08-17 15:30:00,82.0,60.0,29.85,East,92,0.0,-999.0,48,-99.99,,,0.00,weatherlink.com 1.10,2013-08-17 22:30:00,
2013-08-17 15:45:00,82.0,60.0,29.85,SE,133,0.0,-999.0,47,-99.99,,,0.00,weatherlink.com 1.10,2013-08-17 22:45:00,
2013-08-17 16:00:00,81.6,60.0,29.83,ESE,106,0.0,-999.0,48,-99.99,,,0.00,weatherlink.com 1.10,2013-08-17 23:00:00,
2013-08-17 16:15:00,81.1,60.0,29.83,SE,140,2.0,-999.0,49,-99.99,,,0.00,weatherlink.com 1.10,2013-08-17 23:15:00,
2013-08-17 16:30:00,80.9,60.0,29.83,SE,128,0.0,-999.0,50,-99.99,,,0.00,weatherlink.com 1.10,2013-08-17 23:30:00,
2013-08-17 16:45:00,81.4,60.0,29.83,SE,142,2.0,-999.0,48,-99.99,,,0.00,weatherlink.com 1.10,2013-08-17 23:45:00,
2013-08-17 17:00:00,82.0,60.0,29.82,SE,134,3.0,-999.0,47,-99.99,,,0.00,weatherlink.com 1.10,2013-08-18 00:00:00,
2013-08-17 17:15:00,82.0,60.0,29.82,ESE,112,3.0,-999.0,48,-99.99,,,0.00,weatherlink.com 1.10,2013-08-18 00:15:00,
2013-08-17 17:30:00,81.2,60.0,29.81,SSE,152,0.0,-999.0,48,-99.99,,,0.00,weatherlink.com 1.10,2013-08-18 00:30:00,
2013-08-17 17:45:00,81.6,60.0,29.81,East,86,2.0,-999.0,48,-99.99,,,0.00,weatherlink.com 1.10,2013-08-18 00:45:00,
2013-08-17 18:00:00,82.6,60.0,29.81,SSE,168,3.0,-999.0,46,-99.99,,,0.00,weatherlink.com 1.10,2013-08-18 01:00:00,
2013-08-17 18:15:00,83.4,60.0,29.80,SSE,161,0.0,-999.0,45,-99.99,,,0.00,weatherlink.com 1.10,2013-08-18 01:15:00,
2013-08-17 18:31:00,83.8,60.0,29.80,SE,145,4.0,-999.0,45,-99.99,,,0.00,weatherlink.com 1.10,2013-08-18 01:31:00,
2013-08-17 18:46:00,83.4,60.0,29.79,SSE,155,4.0,-999.0,45,-99.99,,,0.00,weatherlink.com 1.10,2013-08-18 01:46:00,
2013-08-17 19:01:00,82.6,60.0,29.80,SSE,161,0.0,-999.0,47,-99.99,,,0.00,weatherlink.com 1.10,2013-08-18 02:01:00,
2013-08-17 19:16:00,81.8,60.0,29.80,SSE,161,3.0,-999.0,48,-99.99,,,0.00,weatherlink.com 1.10,2013-08-18 02:16:00,
2013-08-17 19:31:00,81.1,60.0,29.80,SE,139,0.0,-999.0,49,-99.99,,,0.00,weatherlink.com 1.10,2013-08-18 02:31:00,
2013-08-17 19:46:00,80.1,60.0,29.80,SE,139,0.0,-999.0,51,-99.99,,,0.00,weatherlink.com 1.10,2013-08-18 02:46:00,
2013-08-17 20:01:00,79.0,60.0,29.80,SE,139,0.0,-999.0,52,-99.99,,,0.00,weatherlink.com 1.10,2013-08-18 03:01:00,
2013-08-17 20:16:00,77.9,60.0,29.81,SE,138,0.0,-999.0,54,-99.99,,,0.00,weatherlink.com 1.10,2013-08-18 03:16:00,
2013-08-17 20:31:00,76.1,60.0,29.81,East,88,1.0,-999.0,57,-99.99,,,0.00,weatherlink.com 1.10,2013-08-18 03:31:00,
2013-08-17 20:46:00,74.9,59.0,29.82,SE,138,0.0,-999.0,59,-99.99,,,0.00,weatherlink.com 1.10,2013-08-18 03:46:00,
2013-08-17 21:01:00,73.7,60.0,29.83,SE,132,1.0,-999.0,62,-99.99,,,0.00,weatherlink.com 1.10,2013-08-18 04:01:00,
2013-08-17 21:16:00,72.5,60.0,29.83,ESE,123,0.0,-999.0,64,-99.99,,,0.00,weatherlink.com 1.10,2013-08-18 04:16:00,
2013-08-17 21:31:00,71.3,59.0,29.84,SSE,163,4.0,-999.0,66,-99.99,,,0.00,weatherlink.com 1.10,2013-08-18 04:31:00,
2013-08-17 21:46:00,70.4,59.0,29.85,SSE,164,0.0,-999.0,67,-99.99,,,0.00,weatherlink.com 1.10,2013-08-18 04:46:00,
2013-08-17 22:01:00,69.6,59.0,29.85,SSE,160,0.0,-999.0,70,-99.99,,,0.00,weatherlink.com 1.10,2013-08-18 05:01:00,
2013-08-17 22:16:00,68.8,59.0,29.84,SE,130,0.0,-999.0,71,-99.99,,,0.00,weatherlink.com 1.10,2013-08-18 05:16:00,
2013-08-17 22:31:00,68.1,59.0,29.84,SE,130,0.0,-999.0,73,-99.99,,,0.00,weatherlink.com 1.10,2013-08-18 05:31:00,
2013-08-17 22:46:00,67.6,59.0,29.85,SE,130,0.0,-999.0,74,-99.99,,,0.00,weatherlink.com 1.10,2013-08-18 05:46:00,
2013-08-17 23:01:00,66.9,59.0,29.84,SE,130,0.0,-999.0,75,-99.99,,,0.00,weatherlink.com 1.10,2013-08-18 06:01:00,
2013-08-17 23:16:00,66.4,59.0,29.84,SE,130,0.0,-999.0,76,-99.99,,,0.00,weatherlink.com 1.10,2013-08-18 06:16:00,
2013-08-17 23:31:00,65.5,58.0,29.84,SE,130,0.0,-999.0,76,-99.99,,,0.00,weatherlink.com 1.10,2013-08-18 06:31:00,
2013-08-17 23:46:00,64.7,57.0,29.84,SE,130,0.0,-999.0,77,-99.99,,,0.00,weatherlink.com 1.10,2013-08-18 06:46:00,